sensor_id;sensor_type;location;lat;lon;timestamp;P1;durP1;ratioP1;P2;durP2;ratioP2
72639;SDS011;60683;51.730;8.762;2023-05-20T00:01:41;3.38;;;1.67;;
72639;SDS011;60683;51.730;8.762;2023-05-20T00:04:08;4.05;;;1.67;;
72639;SDS011;60683;51.730;8.762;2023-05-20T00:06:36;3.05;;;1.55;;
72639;SDS011;60683;51.730;8.762;2023-05-20T00:09:03;3.42;;;1.50;;
72639;SDS011;60683;51.730;8.762;2023-05-20T00:11:31;4.75;;;1.90;;
72639;SDS011;60683;51.730;8.762;2023-05-20T00:13:59;4.13;;;1.83;;
72639;SDS011;60683;51.730;8.762;2023-05-20T00:16:27;3.58;;;1.67;;
72639;SDS011;60683;51.730;8.762;2023-05-20T00:18:55;6.35;;;1.70;;
72639;SDS011;60683;51.730;8.762;2023-05-20T00:21:23;4.03;;;1.70;;
72639;SDS011;60683;51.730;8.762;2023-05-20T00:23:51;3.78;;;1.63;;
72639;SDS011;60683;51.730;8.762;2023-05-20T00:26:18;3.45;;;1.58;;
72639;SDS011;60683;51.730;8.762;2023-05-20T00:28:46;3.63;;;1.70;;
72639;SDS011;60683;51.730;8.762;2023-05-20T00:31:13;3.78;;;1.90;;
72639;SDS011;60683;51.730;8.762;2023-05-20T00:33:41;3.38;;;1.58;;
72639;SDS011;60683;51.730;8.762;2023-05-20T00:36:10;5.55;;;1.88;;
72639;SDS011;60683;51.730;8.762;2023-05-20T00:38:37;4.05;;;1.80;;
72639;SDS011;60683;51.730;8.762;2023-05-20T00:41:05;4.28;;;1.80;;
72639;SDS011;60683;51.730;8.762;2023-05-20T00:43:32;4.15;;;1.80;;
72639;SDS011;60683;51.730;8.762;2023-05-20T00:46:00;3.60;;;1.70;;
72639;SDS011;60683;51.730;8.762;2023-05-20T00:48:28;3.80;;;1.75;;
72639;SDS011;60683;51.730;8.762;2023-05-20T00:50:59;3.42;;;1.52;;
72639;SDS011;60683;51.730;8.762;2023-05-20T00:53:29;4.10;;;1.75;;
72639;SDS011;60683;51.730;8.762;2023-05-20T00:55:56;4.00;;;1.60;;
72639;SDS011;60683;51.730;8.762;2023-05-20T00:58:24;3.42;;;1.70;;
72639;SDS011;60683;51.730;8.762;2023-05-20T01:00:51;4.68;;;1.85;;
72639;SDS011;60683;51.730;8.762;2023-05-20T01:03:19;4.80;;;1.73;;
72639;SDS011;60683;51.730;8.762;2023-05-20T01:05:47;4.20;;;1.60;;
72639;SDS011;60683;51.730;8.762;2023-05-20T01:08:14;3.90;;;1.92;;
72639;SDS011;60683;51.730;8.762;2023-05-20T01:10:44;4.35;;;1.75;;
72639;SDS011;60683;51.730;8.762;2023-05-20T01:13:14;4.93;;;1.85;;
72639;SDS011;60683;51.730;8.762;2023-05-20T01:15:42;3.42;;;1.70;;
72639;SDS011;60683;51.730;8.762;2023-05-20T01:18:11;4.22;;;1.85;;
72639;SDS011;60683;51.730;8.762;2023-05-20T01:20:43;3.72;;;1.80;;
72639;SDS011;60683;51.730;8.762;2023-05-20T01:23:14;4.07;;;2.17;;
72639;SDS011;60683;51.730;8.762;2023-05-20T01:25:42;4.93;;;2.08;;
72639;SDS011;60683;51.730;8.762;2023-05-20T01:28:09;5.45;;;2.00;;
72639;SDS011;60683;51.730;8.762;2023-05-20T01:30:43;5.75;;;2.25;;
72639;SDS011;60683;51.730;8.762;2023-05-20T01:33:16;3.80;;;2.03;;
72639;SDS011;60683;51.730;8.762;2023-05-20T01:35:45;5.90;;;2.20;;
72639;SDS011;60683;51.730;8.762;2023-05-20T01:38:14;4.28;;;2.25;;
72639;SDS011;60683;51.730;8.762;2023-05-20T01:40:44;5.32;;;2.10;;
72639;SDS011;60683;51.730;8.762;2023-05-20T01:43:12;5.18;;;2.15;;
72639;SDS011;60683;51.730;8.762;2023-05-20T01:45:40;4.50;;;2.25;;
72639;SDS011;60683;51.730;8.762;2023-05-20T01:48:08;4.72;;;2.53;;
72639;SDS011;60683;51.730;8.762;2023-05-20T01:50:37;6.22;;;2.53;;
72639;SDS011;60683;51.730;8.762;2023-05-20T01:53:05;3.85;;;1.75;;
72639;SDS011;60683;51.730;8.762;2023-05-20T01:55:36;7.10;;;2.22;;
72639;SDS011;60683;51.730;8.762;2023-05-20T01:58:03;4.50;;;2.30;;
72639;SDS011;60683;51.730;8.762;2023-05-20T02:00:31;5.70;;;2.30;;
72639;SDS011;60683;51.730;8.762;2023-05-20T02:02:59;5.72;;;2.40;;
72639;SDS011;60683;51.730;8.762;2023-05-20T02:05:28;7.03;;;2.67;;
72639;SDS011;60683;51.730;8.762;2023-05-20T02:08:00;5.47;;;2.35;;
72639;SDS011;60683;51.730;8.762;2023-05-20T02:10:28;5.20;;;2.33;;
72639;SDS011;60683;51.730;8.762;2023-05-20T02:12:56;5.38;;;2.42;;
72639;SDS011;60683;51.730;8.762;2023-05-20T02:15:24;3.85;;;1.98;;
72639;SDS011;60683;51.730;8.762;2023-05-20T02:17:51;5.60;;;2.50;;
72639;SDS011;60683;51.730;8.762;2023-05-20T02:20:19;5.03;;;2.35;;
72639;SDS011;60683;51.730;8.762;2023-05-20T02:22:47;4.18;;;2.00;;
72639;SDS011;60683;51.730;8.762;2023-05-20T02:25:14;5.55;;;2.58;;
72639;SDS011;60683;51.730;8.762;2023-05-20T02:27:42;4.10;;;2.33;;
72639;SDS011;60683;51.730;8.762;2023-05-20T02:30:11;4.43;;;2.30;;
72639;SDS011;60683;51.730;8.762;2023-05-20T02:35:08;5.95;;;2.25;;
72639;SDS011;60683;51.730;8.762;2023-05-20T02:37:35;4.82;;;2.45;;
72639;SDS011;60683;51.730;8.762;2023-05-20T02:40:05;6.40;;;2.15;;
72639;SDS011;60683;51.730;8.762;2023-05-20T02:42:34;4.35;;;2.25;;
72639;SDS011;60683;51.730;8.762;2023-05-20T02:45:01;4.78;;;2.33;;
72639;SDS011;60683;51.730;8.762;2023-05-20T02:47:30;5.10;;;2.42;;
72639;SDS011;60683;51.730;8.762;2023-05-20T02:49:58;5.30;;;2.25;;
72639;SDS011;60683;51.730;8.762;2023-05-20T02:52:25;5.60;;;2.33;;
72639;SDS011;60683;51.730;8.762;2023-05-20T02:54:53;5.13;;;2.47;;
72639;SDS011;60683;51.730;8.762;2023-05-20T02:57:21;4.32;;;2.25;;
72639;SDS011;60683;51.730;8.762;2023-05-20T02:59:49;4.38;;;2.35;;
72639;SDS011;60683;51.730;8.762;2023-05-20T03:02:17;5.30;;;2.20;;
72639;SDS011;60683;51.730;8.762;2023-05-20T03:04:46;5.80;;;2.38;;
72639;SDS011;60683;51.730;8.762;2023-05-20T03:07:13;5.45;;;2.58;;
72639;SDS011;60683;51.730;8.762;2023-05-20T03:09:44;4.40;;;2.45;;
72639;SDS011;60683;51.730;8.762;2023-05-20T03:12:11;4.45;;;2.10;;
72639;SDS011;60683;51.730;8.762;2023-05-20T03:14:42;9.93;;;2.15;;
72639;SDS011;60683;51.730;8.762;2023-05-20T03:17:09;5.63;;;1.95;;
72639;SDS011;60683;51.730;8.762;2023-05-20T03:19:37;5.03;;;1.85;;
72639;SDS011;60683;51.730;8.762;2023-05-20T03:22:06;4.75;;;2.22;;
72639;SDS011;60683;51.730;8.762;2023-05-20T03:24:34;5.20;;;2.42;;
72639;SDS011;60683;51.730;8.762;2023-05-20T03:27:02;5.38;;;2.30;;
72639;SDS011;60683;51.730;8.762;2023-05-20T03:29:29;5.75;;;2.28;;
72639;SDS011;60683;51.730;8.762;2023-05-20T03:31:58;5.55;;;2.13;;
72639;SDS011;60683;51.730;8.762;2023-05-20T03:34:26;5.05;;;2.58;;
72639;SDS011;60683;51.730;8.762;2023-05-20T03:36:55;3.80;;;1.88;;
72639;SDS011;60683;51.730;8.762;2023-05-20T03:39:24;6.03;;;2.78;;
72639;SDS011;60683;51.730;8.762;2023-05-20T03:41:51;2.42;;;1.38;;
72639;SDS011;60683;51.730;8.762;2023-05-20T03:44:19;2.63;;;1.08;;
72639;SDS011;60683;51.730;8.762;2023-05-20T03:46:47;3.17;;;1.52;;
72639;SDS011;60683;51.730;8.762;2023-05-20T03:49:15;3.97;;;2.00;;
72639;SDS011;60683;51.730;8.762;2023-05-20T03:51:43;6.35;;;2.20;;
72639;SDS011;60683;51.730;8.762;2023-05-20T03:54:10;4.25;;;2.30;;
72639;SDS011;60683;51.730;8.762;2023-05-20T03:56:39;6.97;;;2.83;;
72639;SDS011;60683;51.730;8.762;2023-05-20T03:59:06;3.50;;;2.03;;
72639;SDS011;60683;51.730;8.762;2023-05-20T04:01:34;4.53;;;2.10;;
72639;SDS011;60683;51.730;8.762;2023-05-20T04:04:02;5.18;;;2.80;;
72639;SDS011;60683;51.730;8.762;2023-05-20T04:06:31;5.18;;;2.53;;
72639;SDS011;60683;51.730;8.762;2023-05-20T04:08:59;4.05;;;1.90;;
72639;SDS011;60683;51.730;8.762;2023-05-20T04:11:26;4.38;;;2.38;;
72639;SDS011;60683;51.730;8.762;2023-05-20T04:13:55;3.70;;;1.80;;
72639;SDS011;60683;51.730;8.762;2023-05-20T04:16:23;4.82;;;2.05;;
72639;SDS011;60683;51.730;8.762;2023-05-20T04:18:51;5.30;;;2.85;;
72639;SDS011;60683;51.730;8.762;2023-05-20T04:21:18;6.03;;;2.33;;
72639;SDS011;60683;51.730;8.762;2023-05-20T04:23:46;4.25;;;2.22;;
72639;SDS011;60683;51.730;8.762;2023-05-20T04:26:13;3.08;;;1.60;;
72639;SDS011;60683;51.730;8.762;2023-05-20T04:28:41;5.60;;;2.38;;
72639;SDS011;60683;51.730;8.762;2023-05-20T04:31:10;4.97;;;2.03;;
72639;SDS011;60683;51.730;8.762;2023-05-20T04:33:38;4.97;;;2.00;;
72639;SDS011;60683;51.730;8.762;2023-05-20T04:36:06;3.45;;;1.92;;
72639;SDS011;60683;51.730;8.762;2023-05-20T04:38:37;3.58;;;1.73;;
72639;SDS011;60683;51.730;8.762;2023-05-20T04:41:04;3.58;;;1.70;;
72639;SDS011;60683;51.730;8.762;2023-05-20T04:43:33;5.43;;;2.47;;
72639;SDS011;60683;51.730;8.762;2023-05-20T04:46:03;4.85;;;2.22;;
72639;SDS011;60683;51.730;8.762;2023-05-20T04:48:33;5.10;;;2.63;;
72639;SDS011;60683;51.730;8.762;2023-05-20T04:51:01;6.43;;;2.83;;
72639;SDS011;60683;51.730;8.762;2023-05-20T04:53:29;6.70;;;2.30;;
72639;SDS011;60683;51.730;8.762;2023-05-20T04:55:56;6.53;;;2.78;;
72639;SDS011;60683;51.730;8.762;2023-05-20T04:58:24;4.90;;;2.58;;
72639;SDS011;60683;51.730;8.762;2023-05-20T05:00:51;7.20;;;2.67;;
72639;SDS011;60683;51.730;8.762;2023-05-20T05:03:19;5.53;;;2.75;;
72639;SDS011;60683;51.730;8.762;2023-05-20T05:05:48;4.20;;;1.90;;
72639;SDS011;60683;51.730;8.762;2023-05-20T05:08:15;6.82;;;3.10;;
72639;SDS011;60683;51.730;8.762;2023-05-20T05:10:43;4.93;;;2.67;;
72639;SDS011;60683;51.730;8.762;2023-05-20T05:13:13;5.68;;;2.88;;
72639;SDS011;60683;51.730;8.762;2023-05-20T05:15:40;6.18;;;3.13;;
72639;SDS011;60683;51.730;8.762;2023-05-20T05:18:08;5.97;;;3.55;;
72639;SDS011;60683;51.730;8.762;2023-05-20T05:20:35;5.63;;;2.65;;
72639;SDS011;60683;51.730;8.762;2023-05-20T05:23:04;5.10;;;2.85;;
72639;SDS011;60683;51.730;8.762;2023-05-20T05:25:34;11.95;;;4.15;;
72639;SDS011;60683;51.730;8.762;2023-05-20T05:28:02;7.93;;;3.47;;
72639;SDS011;60683;51.730;8.762;2023-05-20T05:30:29;7.85;;;3.35;;
72639;SDS011;60683;51.730;8.762;2023-05-20T05:32:57;5.78;;;2.83;;
72639;SDS011;60683;51.730;8.762;2023-05-20T05:35:25;5.03;;;3.05;;
72639;SDS011;60683;51.730;8.762;2023-05-20T05:37:52;6.25;;;3.25;;
72639;SDS011;60683;51.730;8.762;2023-05-20T05:40:21;6.45;;;3.10;;
72639;SDS011;60683;51.730;8.762;2023-05-20T05:42:48;6.82;;;3.50;;
72639;SDS011;60683;51.730;8.762;2023-05-20T05:45:16;5.57;;;2.80;;
72639;SDS011;60683;51.730;8.762;2023-05-20T05:47:43;5.97;;;3.53;;
72639;SDS011;60683;51.730;8.762;2023-05-20T05:50:11;6.35;;;3.63;;
72639;SDS011;60683;51.730;8.762;2023-05-20T05:52:38;5.43;;;3.03;;
72639;SDS011;60683;51.730;8.762;2023-05-20T05:55:06;5.38;;;2.90;;
72639;SDS011;60683;51.730;8.762;2023-05-20T05:57:36;5.85;;;3.03;;
72639;SDS011;60683;51.730;8.762;2023-05-20T06:00:04;6.10;;;3.25;;
72639;SDS011;60683;51.730;8.762;2023-05-20T06:02:33;6.78;;;3.08;;
72639;SDS011;60683;51.730;8.762;2023-05-20T06:05:01;5.90;;;3.22;;
72639;SDS011;60683;51.730;8.762;2023-05-20T06:07:29;6.88;;;3.97;;
72639;SDS011;60683;51.730;8.762;2023-05-20T06:09:56;6.50;;;3.30;;
72639;SDS011;60683;51.730;8.762;2023-05-20T06:12:24;5.70;;;3.05;;
72639;SDS011;60683;51.730;8.762;2023-05-20T06:14:53;6.15;;;3.90;;
72639;SDS011;60683;51.730;8.762;2023-05-20T06:17:21;5.55;;;3.10;;
72639;SDS011;60683;51.730;8.762;2023-05-20T06:19:48;7.32;;;3.47;;
72639;SDS011;60683;51.730;8.762;2023-05-20T06:22:15;6.15;;;3.00;;
72639;SDS011;60683;51.730;8.762;2023-05-20T06:24:43;8.50;;;3.72;;
72639;SDS011;60683;51.730;8.762;2023-05-20T06:27:10;7.72;;;3.80;;
72639;SDS011;60683;51.730;8.762;2023-05-20T06:29:38;8.18;;;3.30;;
72639;SDS011;60683;51.730;8.762;2023-05-20T06:32:07;8.40;;;3.50;;
72639;SDS011;60683;51.730;8.762;2023-05-20T06:34:34;8.93;;;3.72;;
72639;SDS011;60683;51.730;8.762;2023-05-20T06:37:02;7.53;;;3.50;;
72639;SDS011;60683;51.730;8.762;2023-05-20T06:39:30;7.00;;;3.10;;
72639;SDS011;60683;51.730;8.762;2023-05-20T06:41:57;5.95;;;3.50;;
72639;SDS011;60683;51.730;8.762;2023-05-20T06:44:24;6.70;;;3.20;;
72639;SDS011;60683;51.730;8.762;2023-05-20T06:46:52;6.55;;;3.22;;
72639;SDS011;60683;51.730;8.762;2023-05-20T06:49:21;6.70;;;3.30;;
72639;SDS011;60683;51.730;8.762;2023-05-20T06:51:49;6.10;;;3.30;;
72639;SDS011;60683;51.730;8.762;2023-05-20T06:54:17;8.65;;;3.83;;
72639;SDS011;60683;51.730;8.762;2023-05-20T06:56:45;5.78;;;2.97;;
72639;SDS011;60683;51.730;8.762;2023-05-20T06:59:12;5.80;;;3.17;;
72639;SDS011;60683;51.730;8.762;2023-05-20T07:01:40;6.15;;;3.17;;
72639;SDS011;60683;51.730;8.762;2023-05-20T07:04:07;9.23;;;4.03;;
72639;SDS011;60683;51.730;8.762;2023-05-20T07:06:36;6.93;;;4.03;;
72639;SDS011;60683;51.730;8.762;2023-05-20T07:09:03;7.55;;;3.63;;
72639;SDS011;60683;51.730;8.762;2023-05-20T07:11:31;6.90;;;3.67;;
72639;SDS011;60683;51.730;8.762;2023-05-20T07:13:58;6.85;;;3.67;;
72639;SDS011;60683;51.730;8.762;2023-05-20T07:16:26;5.72;;;2.80;;
72639;SDS011;60683;51.730;8.762;2023-05-20T07:18:54;5.53;;;2.88;;
72639;SDS011;60683;51.730;8.762;2023-05-20T07:21:21;8.13;;;4.05;;
72639;SDS011;60683;51.730;8.762;2023-05-20T07:23:50;8.23;;;3.80;;
72639;SDS011;60683;51.730;8.762;2023-05-20T07:26:18;5.68;;;2.95;;
72639;SDS011;60683;51.730;8.762;2023-05-20T07:28:46;8.90;;;3.20;;
72639;SDS011;60683;51.730;8.762;2023-05-20T07:31:14;5.25;;;2.55;;
72639;SDS011;60683;51.730;8.762;2023-05-20T07:33:41;5.60;;;3.22;;
72639;SDS011;60683;51.730;8.762;2023-05-20T07:36:09;4.20;;;2.10;;
72639;SDS011;60683;51.730;8.762;2023-05-20T07:38:36;9.23;;;3.90;;
72639;SDS011;60683;51.730;8.762;2023-05-20T07:41:06;5.47;;;3.00;;
72639;SDS011;60683;51.730;8.762;2023-05-20T07:43:33;5.30;;;2.45;;
72639;SDS011;60683;51.730;8.762;2023-05-20T07:46:01;6.05;;;3.05;;
72639;SDS011;60683;51.730;8.762;2023-05-20T07:48:28;6.88;;;4.03;;
72639;SDS011;60683;51.730;8.762;2023-05-20T07:50:56;6.85;;;3.53;;
72639;SDS011;60683;51.730;8.762;2023-05-20T07:53:24;7.95;;;3.90;;
72639;SDS011;60683;51.730;8.762;2023-05-20T07:55:52;5.60;;;3.03;;
72639;SDS011;60683;51.730;8.762;2023-05-20T07:58:20;7.13;;;4.03;;
72639;SDS011;60683;51.730;8.762;2023-05-20T08:00:48;5.88;;;3.25;;
72639;SDS011;60683;51.730;8.762;2023-05-20T08:03:16;6.03;;;3.30;;
72639;SDS011;60683;51.730;8.762;2023-05-20T08:05:44;5.45;;;2.28;;
72639;SDS011;60683;51.730;8.762;2023-05-20T08:08:11;6.85;;;3.67;;
72639;SDS011;60683;51.730;8.762;2023-05-20T08:10:39;7.40;;;3.28;;
72639;SDS011;60683;51.730;8.762;2023-05-20T08:13:06;4.53;;;2.28;;
72639;SDS011;60683;51.730;8.762;2023-05-20T08:15:36;7.05;;;3.28;;
72639;SDS011;60683;51.730;8.762;2023-05-20T08:18:03;6.97;;;3.03;;
72639;SDS011;60683;51.730;8.762;2023-05-20T08:20:31;7.13;;;3.08;;
72639;SDS011;60683;51.730;8.762;2023-05-20T08:22:58;5.53;;;3.08;;
72639;SDS011;60683;51.730;8.762;2023-05-20T08:25:26;7.13;;;2.72;;
72639;SDS011;60683;51.730;8.762;2023-05-20T08:27:54;4.85;;;2.72;;
72639;SDS011;60683;51.730;8.762;2023-05-20T08:30:22;5.50;;;2.90;;
72639;SDS011;60683;51.730;8.762;2023-05-20T08:32:50;5.03;;;2.95;;
72639;SDS011;60683;51.730;8.762;2023-05-20T08:35:18;7.95;;;3.28;;
72639;SDS011;60683;51.730;8.762;2023-05-20T08:37:46;5.55;;;2.55;;
72639;SDS011;60683;51.730;8.762;2023-05-20T08:40:13;5.05;;;2.50;;
72639;SDS011;60683;51.730;8.762;2023-05-20T08:42:41;4.28;;;2.20;;
72639;SDS011;60683;51.730;8.762;2023-05-20T08:45:09;6.35;;;3.65;;
72639;SDS011;60683;51.730;8.762;2023-05-20T08:47:39;6.45;;;3.25;;
72639;SDS011;60683;51.730;8.762;2023-05-20T08:50:10;5.38;;;2.85;;
72639;SDS011;60683;51.730;8.762;2023-05-20T08:52:40;6.65;;;3.25;;
72639;SDS011;60683;51.730;8.762;2023-05-20T08:55:10;5.80;;;2.85;;
72639;SDS011;60683;51.730;8.762;2023-05-20T08:57:40;4.88;;;2.55;;
72639;SDS011;60683;51.730;8.762;2023-05-20T09:00:11;4.75;;;2.08;;
72639;SDS011;60683;51.730;8.762;2023-05-20T09:02:41;7.22;;;2.75;;
72639;SDS011;60683;51.730;8.762;2023-05-20T09:05:11;4.38;;;2.03;;
72639;SDS011;60683;51.730;8.762;2023-05-20T09:07:39;5.30;;;2.40;;
72639;SDS011;60683;51.730;8.762;2023-05-20T09:10:08;4.43;;;2.03;;
72639;SDS011;60683;51.730;8.762;2023-05-20T09:12:36;5.00;;;2.30;;
72639;SDS011;60683;51.730;8.762;2023-05-20T09:15:04;7.38;;;2.67;;
72639;SDS011;60683;51.730;8.762;2023-05-20T09:17:33;5.38;;;2.38;;
72639;SDS011;60683;51.730;8.762;2023-05-20T09:20:04;4.30;;;2.42;;
72639;SDS011;60683;51.730;8.762;2023-05-20T09:22:35;5.18;;;2.70;;
72639;SDS011;60683;51.730;8.762;2023-05-20T09:25:03;6.32;;;2.90;;
72639;SDS011;60683;51.730;8.762;2023-05-20T09:27:31;6.95;;;2.97;;
72639;SDS011;60683;51.730;8.762;2023-05-20T09:29:59;6.13;;;2.70;;
72639;SDS011;60683;51.730;8.762;2023-05-20T09:32:26;4.57;;;2.63;;
72639;SDS011;60683;51.730;8.762;2023-05-20T09:34:54;5.75;;;2.47;;
72639;SDS011;60683;51.730;8.762;2023-05-20T09:37:23;3.95;;;2.25;;
72639;SDS011;60683;51.730;8.762;2023-05-20T09:39:54;5.10;;;2.05;;
72639;SDS011;60683;51.730;8.762;2023-05-20T09:42:25;4.20;;;1.90;;
72639;SDS011;60683;51.730;8.762;2023-05-20T09:44:54;5.38;;;2.47;;
72639;SDS011;60683;51.730;8.762;2023-05-20T09:47:22;6.47;;;2.85;;
72639;SDS011;60683;51.730;8.762;2023-05-20T09:49:51;4.70;;;2.58;;
72639;SDS011;60683;51.730;8.762;2023-05-20T09:52:18;6.22;;;2.60;;
72639;SDS011;60683;51.730;8.762;2023-05-20T09:54:46;5.90;;;3.33;;
72639;SDS011;60683;51.730;8.762;2023-05-20T09:57:15;4.85;;;2.20;;
72639;SDS011;60683;51.730;8.762;2023-05-20T09:59:43;3.35;;;1.52;;
72639;SDS011;60683;51.730;8.762;2023-05-20T10:02:11;6.38;;;2.95;;
72639;SDS011;60683;51.730;8.762;2023-05-20T10:04:40;3.85;;;1.60;;
72639;SDS011;60683;51.730;8.762;2023-05-20T10:07:18;5.57;;;2.58;;
72639;SDS011;60683;51.730;8.762;2023-05-20T10:10:02;5.72;;;2.45;;
72639;SDS011;60683;51.730;8.762;2023-05-20T10:12:38;6.13;;;3.05;;
72639;SDS011;60683;51.730;8.762;2023-05-20T10:15:13;6.10;;;2.50;;
72639;SDS011;60683;51.730;8.762;2023-05-20T10:17:45;6.75;;;2.97;;
72639;SDS011;60683;51.730;8.762;2023-05-20T10:20:16;6.07;;;3.05;;
72639;SDS011;60683;51.730;8.762;2023-05-20T10:22:53;5.82;;;2.63;;
72639;SDS011;60683;51.730;8.762;2023-05-20T10:25:24;4.15;;;2.22;;
72639;SDS011;60683;51.730;8.762;2023-05-20T10:28:04;4.95;;;2.35;;
72639;SDS011;60683;51.730;8.762;2023-05-20T10:30:34;3.75;;;1.75;;
72639;SDS011;60683;51.730;8.762;2023-05-20T10:33:02;5.18;;;2.63;;
72639;SDS011;60683;51.730;8.762;2023-05-20T10:35:31;2.30;;;1.23;;
72639;SDS011;60683;51.730;8.762;2023-05-20T10:38:08;4.30;;;2.05;;
72639;SDS011;60683;51.730;8.762;2023-05-20T10:40:37;4.70;;;2.20;;
72639;SDS011;60683;51.730;8.762;2023-05-20T10:43:09;6.30;;;2.88;;
72639;SDS011;60683;51.730;8.762;2023-05-20T10:45:47;4.95;;;2.30;;
72639;SDS011;60683;51.730;8.762;2023-05-20T10:48:24;3.88;;;1.83;;
72639;SDS011;60683;51.730;8.762;2023-05-20T10:50:54;4.35;;;1.95;;
72639;SDS011;60683;51.730;8.762;2023-05-20T10:53:22;4.93;;;2.50;;
72639;SDS011;60683;51.730;8.762;2023-05-20T10:55:51;4.97;;;3.03;;
72639;SDS011;60683;51.730;8.762;2023-05-20T10:58:21;4.78;;;2.67;;
72639;SDS011;60683;51.730;8.762;2023-05-20T11:00:52;5.07;;;2.50;;
72639;SDS011;60683;51.730;8.762;2023-05-20T11:03:20;4.50;;;1.88;;
72639;SDS011;60683;51.730;8.762;2023-05-20T11:05:48;4.93;;;2.30;;
72639;SDS011;60683;51.730;8.762;2023-05-20T11:08:16;5.32;;;2.50;;
72639;SDS011;60683;51.730;8.762;2023-05-20T11:10:44;5.72;;;2.22;;
72639;SDS011;60683;51.730;8.762;2023-05-20T11:13:11;4.38;;;2.28;;
72639;SDS011;60683;51.730;8.762;2023-05-20T11:15:41;8.38;;;1.90;;
72639;SDS011;60683;51.730;8.762;2023-05-20T11:18:09;3.63;;;1.90;;
72639;SDS011;60683;51.730;8.762;2023-05-20T11:20:37;5.30;;;2.85;;
72639;SDS011;60683;51.730;8.762;2023-05-20T11:23:04;4.43;;;1.98;;
72639;SDS011;60683;51.730;8.762;2023-05-20T11:25:32;4.32;;;1.60;;
72639;SDS011;60683;51.730;8.762;2023-05-20T11:27:59;4.95;;;2.08;;
72639;SDS011;60683;51.730;8.762;2023-05-20T11:30:27;5.10;;;2.45;;
72639;SDS011;60683;51.730;8.762;2023-05-20T11:32:58;5.03;;;1.80;;
72639;SDS011;60683;51.730;8.762;2023-05-20T11:35:27;4.00;;;2.25;;
72639;SDS011;60683;51.730;8.762;2023-05-20T11:37:55;4.95;;;1.70;;
72639;SDS011;60683;51.730;8.762;2023-05-20T11:40:24;3.90;;;2.00;;
72639;SDS011;60683;51.730;8.762;2023-05-20T11:42:52;3.53;;;1.80;;
72639;SDS011;60683;51.730;8.762;2023-05-20T11:45:21;3.88;;;1.63;;
72639;SDS011;60683;51.730;8.762;2023-05-20T11:47:59;4.15;;;2.05;;
72639;SDS011;60683;51.730;8.762;2023-05-20T11:50:28;4.40;;;2.05;;
72639;SDS011;60683;51.730;8.762;2023-05-20T11:52:58;7.57;;;3.00;;
72639;SDS011;60683;51.730;8.762;2023-05-20T11:55:26;5.45;;;2.72;;
72639;SDS011;60683;51.730;8.762;2023-05-20T11:57:53;5.65;;;2.47;;
72639;SDS011;60683;51.730;8.762;2023-05-20T12:00:22;4.78;;;2.03;;
72639;SDS011;60683;51.730;8.762;2023-05-20T12:02:50;4.43;;;2.17;;
72639;SDS011;60683;51.730;8.762;2023-05-20T12:05:19;4.28;;;2.00;;
72639;SDS011;60683;51.730;8.762;2023-05-20T12:07:46;9.50;;;2.20;;
72639;SDS011;60683;51.730;8.762;2023-05-20T12:10:14;3.72;;;1.80;;
72639;SDS011;60683;51.730;8.762;2023-05-20T12:12:42;7.70;;;2.33;;
72639;SDS011;60683;51.730;8.762;2023-05-20T12:15:10;3.75;;;2.25;;
72639;SDS011;60683;51.730;8.762;2023-05-20T12:17:44;5.07;;;3.13;;
72639;SDS011;60683;51.730;8.762;2023-05-20T12:20:14;5.15;;;2.90;;
72639;SDS011;60683;51.730;8.762;2023-05-20T12:22:44;4.72;;;2.10;;
72639;SDS011;60683;51.730;8.762;2023-05-20T12:25:12;4.38;;;2.15;;
72639;SDS011;60683;51.730;8.762;2023-05-20T12:27:40;5.22;;;1.92;;
72639;SDS011;60683;51.730;8.762;2023-05-20T12:30:08;3.88;;;2.03;;
72639;SDS011;60683;51.730;8.762;2023-05-20T12:32:36;6.97;;;1.90;;
72639;SDS011;60683;51.730;8.762;2023-05-20T12:35:04;5.90;;;2.92;;
72639;SDS011;60683;51.730;8.762;2023-05-20T12:37:32;4.38;;;1.98;;
72639;SDS011;60683;51.730;8.762;2023-05-20T12:40:02;4.18;;;1.85;;
72639;SDS011;60683;51.730;8.762;2023-05-20T12:42:33;3.90;;;1.83;;
72639;SDS011;60683;51.730;8.762;2023-05-20T12:45:01;5.20;;;2.70;;
72639;SDS011;60683;51.730;8.762;2023-05-20T12:47:29;6.78;;;2.15;;
72639;SDS011;60683;51.730;8.762;2023-05-20T12:49:57;4.07;;;2.08;;
72639;SDS011;60683;51.730;8.762;2023-05-20T12:52:24;2.90;;;1.85;;
72639;SDS011;60683;51.730;8.762;2023-05-20T12:54:52;4.68;;;1.92;;
72639;SDS011;60683;51.730;8.762;2023-05-20T12:57:22;4.13;;;2.17;;
72639;SDS011;60683;51.730;8.762;2023-05-20T12:59:50;5.65;;;2.45;;
72639;SDS011;60683;51.730;8.762;2023-05-20T13:02:17;5.95;;;2.83;;
72639;SDS011;60683;51.730;8.762;2023-05-20T13:04:45;4.43;;;2.30;;
72639;SDS011;60683;51.730;8.762;2023-05-20T13:07:13;3.42;;;1.83;;
72639;SDS011;60683;51.730;8.762;2023-05-20T13:09:40;4.00;;;1.90;;
72639;SDS011;60683;51.730;8.762;2023-05-20T13:12:08;5.50;;;2.65;;
72639;SDS011;60683;51.730;8.762;2023-05-20T13:14:37;5.68;;;2.42;;
72639;SDS011;60683;51.730;8.762;2023-05-20T13:17:04;3.63;;;1.65;;
72639;SDS011;60683;51.730;8.762;2023-05-20T13:19:32;4.13;;;1.88;;
72639;SDS011;60683;51.730;8.762;2023-05-20T13:21:59;4.35;;;2.05;;
72639;SDS011;60683;51.730;8.762;2023-05-20T13:24:27;5.35;;;2.67;;
72639;SDS011;60683;51.730;8.762;2023-05-20T13:26:54;3.95;;;1.98;;
72639;SDS011;60683;51.730;8.762;2023-05-20T13:29:22;3.60;;;2.00;;
72639;SDS011;60683;51.730;8.762;2023-05-20T13:31:51;3.15;;;1.60;;
72639;SDS011;60683;51.730;8.762;2023-05-20T13:34:18;4.95;;;2.42;;
72639;SDS011;60683;51.730;8.762;2023-05-20T13:36:46;2.92;;;1.85;;
72639;SDS011;60683;51.730;8.762;2023-05-20T13:39:14;5.03;;;2.42;;
72639;SDS011;60683;51.730;8.762;2023-05-20T13:41:42;5.93;;;2.63;;
72639;SDS011;60683;51.730;8.762;2023-05-20T13:44:09;7.70;;;3.22;;
72639;SDS011;60683;51.730;8.762;2023-05-20T13:46:37;4.97;;;2.08;;
72639;SDS011;60683;51.730;8.762;2023-05-20T13:49:06;5.82;;;3.20;;
72639;SDS011;60683;51.730;8.762;2023-05-20T13:51:33;4.57;;;2.13;;
72639;SDS011;60683;51.730;8.762;2023-05-20T13:54:01;5.25;;;2.92;;
72639;SDS011;60683;51.730;8.762;2023-05-20T13:56:29;2.88;;;1.75;;
72639;SDS011;60683;51.730;8.762;2023-05-20T13:58:57;4.82;;;2.60;;
72639;SDS011;60683;51.730;8.762;2023-05-20T14:01:24;4.47;;;2.17;;
72639;SDS011;60683;51.730;8.762;2023-05-20T14:03:52;6.28;;;3.40;;
72639;SDS011;60683;51.730;8.762;2023-05-20T14:06:20;7.32;;;3.50;;
72639;SDS011;60683;51.730;8.762;2023-05-20T14:08:48;5.70;;;2.63;;
72639;SDS011;60683;51.730;8.762;2023-05-20T14:11:16;5.63;;;2.70;;
72639;SDS011;60683;51.730;8.762;2023-05-20T14:13:43;5.90;;;3.10;;
72639;SDS011;60683;51.730;8.762;2023-05-20T14:16:10;5.20;;;3.25;;
72639;SDS011;60683;51.730;8.762;2023-05-20T14:18:38;5.65;;;2.85;;
72639;SDS011;60683;51.730;8.762;2023-05-20T14:21:06;6.88;;;3.97;;
72639;SDS011;60683;51.730;8.762;2023-05-20T14:23:35;6.60;;;3.03;;
72639;SDS011;60683;51.730;8.762;2023-05-20T14:26:02;5.85;;;2.95;;
72639;SDS011;60683;51.730;8.762;2023-05-20T14:28:30;4.82;;;2.58;;
72639;SDS011;60683;51.730;8.762;2023-05-20T14:30:57;6.32;;;2.90;;
72639;SDS011;60683;51.730;8.762;2023-05-20T14:33:25;7.35;;;4.03;;
72639;SDS011;60683;51.730;8.762;2023-05-20T14:35:52;8.82;;;3.97;;
72639;SDS011;60683;51.730;8.762;2023-05-20T14:38:20;7.75;;;4.13;;
72639;SDS011;60683;51.730;8.762;2023-05-20T14:40:49;6.80;;;3.50;;
72639;SDS011;60683;51.730;8.762;2023-05-20T14:43:16;8.10;;;4.20;;
72639;SDS011;60683;51.730;8.762;2023-05-20T14:45:44;6.57;;;4.03;;
72639;SDS011;60683;51.730;8.762;2023-05-20T14:48:12;6.15;;;3.72;;
72639;SDS011;60683;51.730;8.762;2023-05-20T14:50:39;8.13;;;3.67;;
72639;SDS011;60683;51.730;8.762;2023-05-20T14:53:07;5.97;;;3.70;;
72639;SDS011;60683;51.730;8.762;2023-05-20T14:55:34;5.90;;;3.13;;
72639;SDS011;60683;51.730;8.762;2023-05-20T14:58:03;6.65;;;3.42;;